Terminal Aerodrome Forecast
Issued by NWS

Home | Current Version | Previous Version | Text Only | Print | Product List | Glossary On
Versions: 1 2 3 4 5 6 7 8 9 10 11 12 13 14 15 16 17 18 19 20
000
FTUS44 KTSA 051720
TAFFYV
TAF
KFYV 051720Z 0518/0618 VRB03KT P6SM SCT025
     FM052000 18008KT P6SM VCTS SCT025CB
     FM060100 17005KT P6SM BKN200
     FM061000 19005KT P6SM OVC015=

USA.gov is the U.S. government's official web portal to all federal, state and local government web resources and services.